Have a Safe July 4th! 

Flight Track Log - Related Links

Times and Time Zones

All times are in EDT time to prevent confusion due to time zone crossing. See the VH-UNU flight status page for this flight to view local times or setup timezone preferences in your user account.

Time Position Orientation Groundspeed Altitude Reporting Facility
EDT Latitude Longitude Course Direction KTS MPH feet Rate Location/Type
Wed 02:49:45 AM -32.7500 151.5333 360° North 6,300  Level Aus ATC (Calculated)
Wed 02:51:17 AM -32.7500 151.5333 360° North 6,300  Level Aus ATC (Calculated)
Wed 02:52:45 AM -32.7500 151.5333 215° Southwest 6,300  Level Aus ATC (Calculated)
Wed 02:53:00 AM -32.7797 151.5081 215° Southwest  Level FlightAware Approximate
Wed 02:54:00 AM -32.7716 151.5150 215° Southwest  Level FlightAware Approximate
Wed 02:54:42 AM -32.7500 151.5333 215° Southwest 6,300  Level Aus ATC (Calculated)
Wed 02:55:00 AM -32.7890 151.5003 215° Southwest  Level FlightAware Approximate
Wed 02:56:00 AM -32.8063 151.4857 215° Southwest  Level FlightAware Approximate
Wed 02:57:00 AM -32.7898 151.4996 215° Southwest  Level FlightAware Approximate
Wed 02:58:00 AM -32.8071 151.4849 215° Southwest  Level FlightAware Approximate
Wed 02:59:00 AM -32.8245 151.4702 215° Southwest  Level FlightAware Approximate
Wed 02:59:51 AM -32.7267 151.5108 165° South 6,300  Level Aus ATC (Calculated)
Wed 02:59:51 AM -32.7267 151.5108 202° Southwest 6,300  Level Aus ATC (Calculated)
Wed 03:00:00 AM -32.8418 151.4556 215° Southwest  Level FlightAware Approximate
Wed 03:01:00 AM -32.8591 151.4409 215° Southwest  Level FlightAware Approximate
Wed 03:02:00 AM -32.8764 151.4262 215° Southwest  Level FlightAware Approximate
Wed 03:03:00 AM -32.7822 151.4664 214° Southwest  Level FlightAware Approximate
Wed 03:04:00 AM -32.8096 151.4751 30° Northeast  Level Estimated
Wed 03:05:00 AM -32.8252 151.4579 223° Southwest  Level FlightAware Approximate
Wed 03:05:19 AM -32.7267 151.5108 207° Southwest 6,300  Level Aus ATC (Calculated)
Wed 03:06:00 AM -32.8408 151.4407 223° Southwest  Level FlightAware Approximate
Wed 03:07:00 AM -32.8564 151.4235 223° Southwest  Level FlightAware Approximate
Wed 03:08:00 AM -32.7710 151.4682 219° Southwest  Level FlightAware Approximate
Wed 03:09:00 AM -32.7876 151.4524 219° Southwest  Level FlightAware Approximate
Wed 03:10:00 AM -32.8041 151.4365 219° Southwest  Level FlightAware Approximate
Wed 03:11:00 AM -32.8207 151.4206 219° Southwest  Level FlightAware Approximate
Wed 03:12:00 AM -32.8372 151.4047 219° Southwest  Level FlightAware Approximate
Wed 03:13:00 AM -32.8537 151.3888 219° Southwest  Level FlightAware Approximate
Wed 03:14:00 AM -32.8703 151.3729 219° Southwest  Level FlightAware Approximate
Wed 03:15:00 AM -32.8868 151.3570 219° Southwest  Level FlightAware Approximate
Wed 03:16:00 AM -32.9033 151.3411 219° Southwest  Level FlightAware Approximate
Wed 03:17:00 AM -32.9199 151.3252 219° Southwest  Level FlightAware Approximate
Wed 03:17:17 AM -32.7033 151.4883 216° Southwest 6,300  Level Aus ATC (Calculated)
Wed 03:19:00 AM -32.7330 151.4631 216° Southwest  Level FlightAware Approximate
Wed 03:20:00 AM -32.7503 151.4484 216° Southwest  Level FlightAware Approximate
Wed 03:21:00 AM -32.7676 151.4337 216° Southwest  Level FlightAware Approximate
Wed 03:22:00 AM -32.7849 151.4190 216° Southwest  Level FlightAware Approximate
Wed 03:23:00 AM -32.8022 151.4043 216° Southwest  Level FlightAware Approximate
Wed 03:24:00 AM -32.8194 151.3896 216° Southwest  Level FlightAware Approximate
Wed 03:25:00 AM -32.8367 151.3749 216° Southwest  Level FlightAware Approximate
Wed 03:26:00 AM -32.8540 151.3601 216° Southwest  Level FlightAware Approximate
Wed 03:27:00 AM -32.8744 151.3531 43° Northeast  Level Estimated
Wed 03:27:27 AM -32.7033 151.4883 141° Southeast 5,000  Level Aus ATC (Calculated)
Wed 03:29:00 AM -32.7289 151.5130 141° Southeast  Level FlightAware Approximate
Wed 03:29:35 AM -32.7500 151.5333 360° North 4,500  Level Aus ATC (Calculated)
Wed 03:31:00 AM -32.7199 151.5333 North  Level FlightAware Approximate
Wed 03:32:00 AM -32.7411 151.5333 180° South  Level FlightAware Approximate
Wed 03:33:00 AM -32.7624 151.5333 180° South  Level FlightAware Approximate
Wed 03:34:00 AM -32.7411 151.5333 North  Level FlightAware Approximate
Wed 03:35:00 AM -32.7624 151.5333 180° South  Level FlightAware Approximate
Wed 03:36:00 AM -32.7411 151.5333 North  Level FlightAware Approximate
Wed 03:37:00 AM -32.7624 151.5333 180° South  Level FlightAware Approximate
Wed 03:38:00 AM -32.7411 151.5333 North  Level FlightAware Approximate
Wed 03:39:00 AM -32.7624 151.5333 180° South  Level FlightAware Approximate
Wed 03:40:00 AM -32.7411 151.5333 North  Level FlightAware Approximate
Wed 03:41:00 AM -32.7624 151.5333 180° South  Level FlightAware Approximate
Wed 03:42:00 AM -32.7411 151.5333 North  Level FlightAware Approximate
Wed 03:43:00 AM -32.7624 151.5333 180° South  Level FlightAware Approximate
Wed 03:44:00 AM -32.7411 151.5333 North  Level FlightAware Approximate
Wed 03:44:37 AM -33.1122 151.1393 42° Northeast 4,500  Level Aus ATC (Calculated)
Wed 03:46:00 AM -33.0905 151.1630 43° Northeast  Level FlightAware Approximate
Wed 03:47:00 AM -33.0748 151.1801 42° Northeast  Level FlightAware Approximate
Wed 03:47:17 AM -33.1742 151.0970 36° Northeast 4,500  Level Aus ATC (Calculated)
Wed 03:48:00 AM -33.0592 151.1973 42° Northeast  Level FlightAware Approximate
Wed 03:49:00 AM -33.1466 151.1255 41° Northeast  Level FlightAware Approximate
Wed 03:50:00 AM -33.1305 151.1421 41° Northeast  Level FlightAware Approximate
Wed 03:51:00 AM -33.1515 151.1381 222° Southwest  Level Estimated
Wed 03:52:00 AM -33.1302 151.1387 North  Level FlightAware Approximate
Wed 03:53:00 AM -33.1090 151.1394 North  Level FlightAware Approximate
Wed 03:54:00 AM -33.1302 151.1387 181° South  Level FlightAware Approximate
Wed 03:55:00 AM -33.1090 151.1394 North  Level FlightAware Approximate
Wed 03:56:00 AM -33.1302 151.1387 181° South  Level FlightAware Approximate
Wed 03:57:00 AM -33.1090 151.1394 North  Level FlightAware Approximate
Wed 03:58:00 AM -33.1302 151.1387 181° South  Level FlightAware Approximate
Wed 03:59:00 AM -33.1090 151.1394 North  Level FlightAware Approximate
Wed 04:00:00 AM -33.1302 151.1387 181° South  Level FlightAware Approximate
Wed 04:01:00 AM -33.1090 151.1394 North  Level FlightAware Approximate
Wed 04:02:00 AM -33.1302 151.1387 181° South  Level FlightAware Approximate
Wed 04:02:30 AM -33.6074 150.7989 30° Northeast 200  Level Aus ATC (Calculated)
Wed 04:04:00 AM -33.5798 150.8180 30° Northeast  Level FlightAware Approximate
Wed 04:05:00 AM -33.5614 150.8307 30° Northeast  Level FlightAware Approximate
Wed 04:06:00 AM -33.5429 150.8435 30° Northeast  Level FlightAware Approximate
Wed 04:07:00 AM -33.5245 150.8562 30° Northeast  Level FlightAware Approximate
Wed 04:08:00 AM -33.5061 150.8689 30° Northeast  Level FlightAware Approximate
Wed 04:09:00 AM -33.4877 150.8816 30° Northeast  Level FlightAware Approximate
Wed 04:10:00 AM -33.4693 150.8943 30° Northeast  Level FlightAware Approximate
Wed 04:11:00 AM -33.4508 150.9070 30° Northeast  Level FlightAware Approximate
Wed 04:12:00 AM -33.4324 150.9197 30° Northeast  Level FlightAware Approximate
Wed 04:12:30 AM -33.9306 150.9878 355° North 200  Level Aus ATC (Calculated)
Wed 04:13:00 AM -33.4140 150.9324 30° Northeast  Level FlightAware Approximate
Wed 04:14:00 AM -33.9244 150.9883 210° Southwest  Level Estimated
Wed 04:15:00 AM -33.9244 150.9883 334° Northwest  Level Estimated
Wed 04:16:00 AM -33.9244 150.9883 334° Northwest  Level Estimated
Wed 04:17:00 AM -33.9244 150.9883 334° Northwest  Level Estimated
Wed 04:18:00 AM -33.9244 150.9883 334° Northwest  Level Estimated
Wed 04:19:00 AM -33.9244 150.9883 334° Northwest  Level Estimated
Wed 04:20:00 AM -33.9244 150.9883 334° Northwest  Level Estimated
Wed 04:21:00 AM -33.9244 150.9883 334° Northwest  Level Estimated
Wed 04:22:00 AM -33.9244 150.9883 334° Northwest  Level Estimated
Wed 04:23:00 AM -33.9244 150.9883 334° Northwest  Level Estimated
Wed 04:24:00 AM -33.9244 150.9883 334° Northwest  Level Estimated
Wed 04:25:00 AM -33.9244 150.9883 334° Northwest  Level Estimated
Wed 04:26:00 AM -33.9244 150.9883 334° Northwest  Level Estimated
Wed 04:27:00 AM -33.9244 150.9883 334° Northwest  Level Estimated
Wed 04:28:00 AM -33.9244 150.9883 334° Northwest  Level Estimated
Wed 04:29:00 AM -33.9244 150.9883 334° Northwest  Level Estimated
Wed 04:30:00 AM -33.9244 150.9883 334° Northwest  Level Estimated

Login

Don't have an account? Register now (free) for customized features, flight alerts, and more!